createdAt,value
2022-10-14T00:02:01.681Z,100769.47
2022-10-14T00:04:29.861Z,100769.28
2022-10-14T00:06:56.682Z,100754.94
2022-10-14T00:09:23.510Z,100805.78
2022-10-14T00:11:50.208Z,100803.38
2022-10-14T00:14:19.302Z,100799.97
2022-10-14T00:16:47.195Z,100798.91
2022-10-14T00:19:14.446Z,100743.06
2022-10-14T00:21:43.664Z,100802.22
2022-10-14T00:24:11.898Z,100802.81
2022-10-14T00:26:39.503Z,100801.47
2022-10-14T00:29:18.762Z,100797.13
2022-10-14T00:31:45.930Z,100796.06
2022-10-14T00:34:15.735Z,100798.28
2022-10-14T00:36:42.981Z,100789.53
2022-10-14T00:39:10.067Z,100789.41
2022-10-14T00:41:37.066Z,100787.69
2022-10-14T00:44:11.021Z,100789.22
2022-10-14T00:46:39.702Z,100793.69
2022-10-14T00:49:19.167Z,100787.25
2022-10-14T00:51:51.758Z,100756.94
2022-10-14T00:54:28.190Z,100787.09
2022-10-14T00:56:54.833Z,100715.94
2022-10-14T00:59:21.622Z,100720.91
2022-10-14T01:01:48.082Z,100793.13
2022-10-14T01:04:14.618Z,100784.91
2022-10-14T01:07:05.843Z,100741.00
2022-10-14T01:09:50.786Z,100788.78
2022-10-14T01:12:34.106Z,100745.72
2022-10-14T01:15:05.042Z,100783.22
2022-10-14T01:17:56.157Z,100794.78
2022-10-14T01:20:40.871Z,100765.41
2022-10-14T01:23:37.759Z,100790.97
2022-10-14T01:26:16.319Z,100787.50
2022-10-14T01:29:02.463Z,100788.16
2022-10-14T01:31:33.055Z,100788.63
2022-10-14T01:34:03.284Z,100787.84
2022-10-14T01:36:31.086Z,100787.31
2022-10-14T01:41:40.416Z,100777.91
2022-10-14T01:44:12.951Z,100780.84
2022-10-14T01:46:40.902Z,100734.97
2022-10-14T01:49:10.498Z,100740.06
2022-10-14T01:51:41.691Z,100756.94
2022-10-14T01:54:17.993Z,100769.41
2022-10-14T01:56:45.478Z,100762.84
2022-10-14T01:59:14.639Z,100761.25
2022-10-14T02:01:41.177Z,100764.56
2022-10-14T02:04:18.822Z,100718.16
2022-10-14T02:07:03.510Z,100760.44
2022-10-14T02:09:39.077Z,100739.84
2022-10-14T02:12:17.376Z,100757.28
2022-10-14T02:14:57.984Z,100760.63
2022-10-14T02:17:24.438Z,100754.47
2022-10-14T02:19:57.097Z,100717.28
2022-10-14T02:22:33.069Z,100692.84
2022-10-14T02:25:04.012Z,100746.84
2022-10-14T02:27:31.773Z,100685.78
2022-10-14T02:29:59.196Z,100711.19
2022-10-14T02:32:26.414Z,100734.34
2022-10-14T02:34:55.015Z,100713.41
2022-10-14T02:37:22.147Z,100680.72
2022-10-14T02:39:54.181Z,100719.50
2022-10-14T02:42:20.857Z,100721.91
2022-10-14T02:44:55.093Z,100729.69
2022-10-14T02:47:22.879Z,100725.78
2022-10-14T02:49:49.478Z,100676.34
2022-10-14T02:52:17.061Z,100723.72
2022-10-14T02:54:43.614Z,100648.38
2022-10-14T02:57:14.049Z,100690.19
2022-10-14T02:59:40.518Z,100701.91
2022-10-14T03:02:07.600Z,100702.03
2022-10-14T03:04:34.715Z,100716.09
2022-10-14T03:07:01.465Z,100716.13
2022-10-14T03:09:28.013Z,100650.94
2022-10-14T03:11:54.578Z,100664.69
2022-10-14T03:14:20.998Z,100550.59
2022-10-14T03:16:47.484Z,100702.72
2022-10-14T03:19:14.526Z,100658.09
2022-10-14T03:21:41.483Z,100690.34
2022-10-14T03:24:09.604Z,100690.38
2022-10-14T03:26:36.069Z,100696.38
2022-10-14T03:29:02.937Z,100661.63
2022-10-14T03:31:29.447Z,100692.06
2022-10-14T03:33:56.065Z,100679.63
2022-10-14T03:36:23.383Z,100630.72
2022-10-14T03:38:49.852Z,100687.13
2022-10-14T03:41:16.574Z,100656.19
2022-10-14T03:43:43.098Z,100602.03
2022-10-14T03:46:09.582Z,100623.75
2022-10-14T03:48:36.150Z,100680.25
2022-10-14T03:51:02.714Z,100674.25
2022-10-14T03:53:29.184Z,100676.47
2022-10-14T03:55:55.659Z,100587.34
2022-10-14T03:58:22.165Z,100641.78
2022-10-14T04:00:49.122Z,100657.38
2022-10-14T04:03:15.679Z,100670.63
2022-10-14T04:05:42.237Z,100673.16
2022-10-14T04:08:08.873Z,100672.88
2022-10-14T04:10:35.504Z,100628.53
2022-10-14T04:13:02.068Z,100620.31
2022-10-14T04:15:28.635Z,100658.09
2022-10-14T04:17:56.261Z,100673.03
2022-10-14T04:20:22.942Z,100617.94
2022-10-14T04:22:49.377Z,100671.94
2022-10-14T04:25:18.637Z,100660.34
2022-10-14T04:27:45.095Z,100664.75
2022-10-14T04:30:12.545Z,100664.72
2022-10-14T04:32:39.058Z,100662.91
2022-10-14T04:35:06.328Z,100668.66
2022-10-14T04:37:32.879Z,100578.22
2022-10-14T04:39:59.307Z,100597.66
2022-10-14T04:42:25.785Z,100620.47
2022-10-14T04:44:52.440Z,100663.75
2022-10-14T04:47:18.891Z,100661.75
2022-10-14T04:49:45.406Z,100613.41
2022-10-14T04:52:11.904Z,100653.00
2022-10-14T04:54:40.458Z,100597.16
2022-10-14T04:57:06.988Z,100647.66
2022-10-14T04:59:34.189Z,100647.50
2022-10-14T05:02:01.007Z,100632.25
2022-10-14T05:04:27.781Z,100590.59
2022-10-14T05:06:54.500Z,100594.13
2022-10-14T05:09:21.072Z,100653.56
2022-10-14T05:11:47.537Z,100611.75
2022-10-14T05:14:14.042Z,100615.13
2022-10-14T05:16:40.534Z,100563.09
2022-10-14T05:19:07.009Z,100630.94
2022-10-14T05:21:33.584Z,100657.13
2022-10-14T05:24:00.062Z,100555.84
2022-10-14T05:26:26.522Z,100655.84
2022-10-14T05:28:53.147Z,100628.88
2022-10-14T05:31:19.803Z,100608.28
2022-10-14T05:33:46.430Z,100652.19
2022-10-14T05:36:12.963Z,100645.88
2022-10-14T05:38:39.470Z,100646.06
2022-10-14T05:41:05.907Z,100640.66
2022-10-14T05:43:33.153Z,100648.75
2022-10-14T05:46:00.241Z,100643.84
2022-10-14T05:48:27.145Z,100641.19
2022-10-14T05:50:53.604Z,100574.25
2022-10-14T05:53:21.750Z,100586.66
2022-10-14T05:55:48.462Z,100634.34
2022-10-14T05:58:15.183Z,100621.84
2022-10-14T06:00:41.633Z,100548.66
2022-10-14T06:03:11.487Z,100631.47
2022-10-14T06:05:38.323Z,100621.22
2022-10-14T06:08:05.170Z,100600.53
2022-10-14T06:10:31.797Z,100605.78
2022-10-14T06:12:58.279Z,100613.81
2022-10-14T06:15:24.865Z,100490.59
2022-10-14T06:17:52.055Z,100596.41
2022-10-14T06:20:18.536Z,100584.66
2022-10-14T06:22:45.594Z,100562.69
2022-10-14T06:25:13.228Z,100620.69
2022-10-14T06:27:39.741Z,100603.16
2022-10-14T06:30:06.587Z,100584.38
2022-10-14T06:32:33.303Z,100563.28
2022-10-14T06:35:00.264Z,100546.22
2022-10-14T06:37:26.751Z,100615.69
2022-10-14T06:39:53.261Z,100551.91
2022-10-14T06:42:19.888Z,100523.41
2022-10-14T06:44:46.409Z,100576.78
2022-10-14T06:47:12.913Z,100536.31
2022-10-14T06:49:39.525Z,100603.63
2022-10-14T06:52:06.174Z,100597.31
2022-10-14T06:54:38.192Z,100518.31
2022-10-14T06:57:06.189Z,100595.81
2022-10-14T06:59:32.723Z,100523.03
2022-10-14T07:01:59.218Z,100503.06
2022-10-14T07:04:25.840Z,100578.53
2022-10-14T07:06:52.383Z,100547.19
2022-10-14T07:09:19.455Z,100583.59
2022-10-14T07:11:46.089Z,100588.59
2022-10-14T07:14:12.536Z,100573.16
2022-10-14T07:16:39.110Z,100562.75
2022-10-14T07:19:08.356Z,100536.94
2022-10-14T07:21:34.815Z,100523.19
2022-10-14T07:24:01.296Z,100584.44
2022-10-14T07:26:31.486Z,100572.16
2022-10-14T07:28:58.512Z,100586.38
2022-10-14T07:31:26.116Z,100575.84
2022-10-14T07:33:52.610Z,100532.53
2022-10-14T07:36:22.548Z,100584.56
2022-10-14T07:38:49.699Z,100571.28
2022-10-14T07:41:22.026Z,100550.16
2022-10-14T07:43:50.881Z,100591.91
2022-10-14T07:46:28.585Z,100586.72
2022-10-14T07:48:57.724Z,100587.56
2022-10-14T07:51:25.767Z,100583.31
2022-10-14T07:53:53.158Z,100588.13
2022-10-14T07:56:20.517Z,100574.00
2022-10-14T07:58:47.184Z,100580.47
2022-10-14T08:01:15.567Z,100562.78
2022-10-14T08:03:43.081Z,100537.97
2022-10-14T08:06:09.702Z,100525.22
2022-10-14T08:08:36.300Z,100535.56
2022-10-14T08:11:02.761Z,100578.47
2022-10-14T08:13:30.139Z,100556.38
2022-10-14T08:15:56.755Z,100577.94
2022-10-14T08:18:25.810Z,100563.25
2022-10-14T08:20:52.997Z,100570.03
2022-10-14T08:23:20.088Z,100539.78
2022-10-14T08:25:48.705Z,100541.97
2022-10-14T08:28:15.496Z,100567.81
2022-10-14T08:30:42.269Z,100569.31
2022-10-14T08:33:09.368Z,100556.06
2022-10-14T08:35:35.826Z,100517.50
2022-10-14T08:38:02.659Z,100481.63
2022-10-14T08:40:30.731Z,100514.09
2022-10-14T08:43:01.810Z,100561.69
2022-10-14T08:45:35.739Z,100528.59
2022-10-14T08:48:05.759Z,100485.88
2022-10-14T08:50:37.796Z,100545.16
2022-10-14T08:53:22.845Z,100557.56
2022-10-14T08:55:56.132Z,100520.56
2022-10-14T08:58:33.393Z,100467.41
2022-10-14T09:01:33.046Z,100541.50
2022-10-14T09:04:01.836Z,100549.59
2022-10-14T09:06:31.606Z,100522.88
2022-10-14T09:09:36.155Z,100539.44
2022-10-14T09:12:09.867Z,100507.13
2022-10-14T09:14:39.861Z,100499.44
2022-10-14T09:19:48.623Z,100494.97
2022-10-14T09:22:15.837Z,100473.63
2022-10-14T09:24:45.315Z,100527.78
2022-10-14T09:27:15.521Z,100527.53
2022-10-14T09:29:55.087Z,100518.22
2022-10-14T09:32:35.335Z,100522.31
2022-10-14T09:35:02.577Z,100512.84
2022-10-14T09:37:35.010Z,100473.00
2022-10-14T09:40:13.579Z,100506.16
2022-10-14T09:43:09.400Z,100498.00
2022-10-14T09:45:51.656Z,100479.50
2022-10-14T09:48:53.745Z,100492.25
2022-10-14T09:51:25.065Z,100491.63
2022-10-14T09:53:54.338Z,100483.56
2022-10-14T09:56:31.043Z,100484.19
2022-10-14T09:58:58.254Z,100454.97
2022-10-14T10:01:27.547Z,100491.34
2022-10-14T10:03:55.103Z,100496.34
2022-10-14T10:06:25.735Z,100485.72
2022-10-14T10:08:55.940Z,100485.94
2022-10-14T10:11:30.040Z,100478.19
2022-10-14T10:13:56.988Z,100479.53
2022-10-14T10:16:26.414Z,100478.19
2022-10-14T10:18:55.306Z,100418.91
2022-10-14T10:21:27.898Z,100456.00
2022-10-14T10:24:03.667Z,100481.44
2022-10-14T10:26:33.760Z,100470.81
2022-10-14T10:29:05.058Z,100482.50
2022-10-14T10:31:35.143Z,100455.91
2022-10-14T10:34:04.846Z,100465.03
2022-10-14T10:36:53.824Z,100458.44
2022-10-14T10:39:45.764Z,100399.66
2022-10-14T10:42:27.233Z,100426.59
2022-10-14T10:45:16.152Z,100438.50
2022-10-14T10:47:46.132Z,100437.22
2022-10-14T10:50:18.004Z,100430.38
2022-10-14T10:52:47.515Z,100429.91
2022-10-14T10:55:28.840Z,100424.72
2022-10-14T10:58:20.275Z,100424.31
2022-10-14T11:01:26.335Z,100416.06
2022-10-14T11:03:53.593Z,100416.59
2022-10-14T11:06:57.628Z,100414.53
2022-10-14T11:09:53.697Z,100406.75
2022-10-14T11:12:31.212Z,100410.38
2022-10-14T11:15:10.149Z,100407.31
2022-10-14T11:17:57.529Z,100347.19
2022-10-14T11:20:24.380Z,100403.69
2022-10-14T11:23:17.276Z,100392.03
2022-10-14T11:26:05.526Z,100392.63
2022-10-14T11:28:38.892Z,100388.03
2022-10-14T11:31:11.518Z,100389.56
2022-10-14T11:33:59.354Z,100388.72
2022-10-14T11:36:44.760Z,100386.91
2022-10-14T11:39:31.959Z,100380.22
2022-10-14T11:42:17.498Z,100383.09
2022-10-14T11:44:44.447Z,100364.06
2022-10-14T11:47:31.754Z,100340.59
2022-10-14T11:50:11.694Z,100379.97
2022-10-14T11:53:02.253Z,100366.84
2022-10-14T11:55:32.405Z,100375.53
2022-10-14T11:58:05.311Z,100344.09
2022-10-14T12:00:51.789Z,100362.03
2022-10-14T12:03:21.142Z,100360.03
2022-10-14T12:05:56.453Z,100370.38
2022-10-14T12:08:23.017Z,100361.47
2022-10-14T12:10:58.629Z,100328.09
2022-10-14T12:13:44.713Z,100274.03
2022-10-14T12:16:15.404Z,100359.81
2022-10-14T12:18:43.078Z,100345.78
2022-10-14T12:21:24.572Z,100347.81
2022-10-14T12:24:06.257Z,100316.31
2022-10-14T12:26:45.023Z,100333.72
2022-10-14T12:29:14.840Z,100347.25
2022-10-14T12:31:48.456Z,100265.59
2022-10-14T12:34:18.832Z,100315.47
2022-10-14T12:36:47.663Z,100269.91
2022-10-14T12:39:17.127Z,100333.00
2022-10-14T12:41:55.547Z,100330.22
2022-10-14T12:44:23.550Z,100326.28
2022-10-14T12:46:51.801Z,100319.44
2022-10-14T12:49:29.122Z,100326.66
2022-10-14T12:52:01.565Z,100317.50
2022-10-14T12:54:28.939Z,100283.28
2022-10-14T12:57:01.541Z,100313.50
2022-10-14T12:59:33.664Z,100278.59
2022-10-14T13:02:04.737Z,100299.66
2022-10-14T13:04:32.044Z,100194.88
2022-10-14T13:07:40.080Z,100307.06
2022-10-14T13:10:26.483Z,100308.22
2022-10-14T13:12:53.167Z,100258.72
2022-10-14T13:15:50.412Z,100291.66
2022-10-14T13:18:28.670Z,100289.16
2022-10-14T13:20:55.375Z,100295.06
2022-10-14T13:23:27.899Z,100288.50
2022-10-14T13:25:59.022Z,100252.22
2022-10-14T13:28:36.112Z,100282.09
2022-10-14T13:31:13.269Z,100270.59
2022-10-14T13:33:48.594Z,100277.56
2022-10-14T13:36:54.023Z,100267.31
2022-10-14T13:39:21.105Z,100267.94
2022-10-14T13:41:48.142Z,100230.44
2022-10-14T13:44:14.896Z,100220.44
2022-10-14T13:46:43.150Z,100255.44
2022-10-14T13:51:53.459Z,100237.25
2022-10-14T13:54:23.027Z,100237.28
2022-10-14T14:00:19.523Z,100245.19
2022-10-14T14:02:34.118Z,100246.25
2022-10-14T14:05:01.475Z,100218.31
2022-10-14T14:10:24.102Z,100247.47
2022-10-14T14:12:50.904Z,100248.56
2022-10-14T14:15:22.267Z,100232.22
2022-10-14T14:17:48.825Z,100206.56
2022-10-14T14:20:20.665Z,100218.31
2022-10-14T14:22:47.513Z,100181.38
2022-10-14T14:25:38.211Z,100167.28
2022-10-14T14:28:15.192Z,100228.31
2022-10-14T14:30:54.626Z,100170.44
2022-10-14T14:33:29.927Z,100196.28
2022-10-14T14:35:59.232Z,100213.78
2022-10-14T14:38:34.982Z,100213.47
2022-10-14T14:41:14.825Z,100197.84
2022-10-14T14:43:47.399Z,100213.03
2022-10-14T14:46:27.936Z,100216.16
2022-10-14T14:48:56.179Z,100181.97
2022-10-14T14:51:22.853Z,100201.38
2022-10-14T14:53:54.379Z,100156.97
2022-10-14T14:56:31.027Z,100209.38
2022-10-14T14:59:10.331Z,100207.22
2022-10-14T15:01:36.900Z,100203.16
2022-10-14T15:04:12.231Z,100200.72
2022-10-14T15:06:51.181Z,100056.66
2022-10-14T15:09:35.107Z,100182.03
2022-10-14T15:12:03.651Z,100120.41
2022-10-14T15:14:41.816Z,100194.81
2022-10-14T15:17:24.873Z,100166.25
2022-10-14T15:19:51.667Z,100178.09
2022-10-14T15:22:23.924Z,100186.63
2022-10-14T15:25:15.994Z,100176.00
2022-10-14T15:27:46.917Z,100171.84
2022-10-14T15:30:34.908Z,100173.91
2022-10-14T15:33:03.166Z,100174.56
2022-10-14T15:35:30.163Z,100176.31
2022-10-14T15:37:56.912Z,100101.66
2022-10-14T15:40:29.009Z,100178.31
2022-10-14T15:42:56.024Z,100167.28
2022-10-14T15:45:23.193Z,100165.38
2022-10-14T15:47:54.129Z,100167.00
2022-10-14T15:50:24.191Z,100161.56
2022-10-14T15:52:53.321Z,100166.47
2022-10-14T15:55:22.923Z,100163.28
2022-10-14T15:57:49.912Z,100160.06
2022-10-14T16:00:18.990Z,100167.81
2022-10-14T16:02:47.785Z,100162.06
2022-10-14T16:05:19.431Z,100102.41
2022-10-14T16:07:48.314Z,100119.25
2022-10-14T16:10:17.612Z,100147.03
2022-10-14T16:12:44.265Z,100118.91
2022-10-14T16:15:27.541Z,100141.78
2022-10-14T16:17:54.120Z,100112.25
2022-10-14T16:20:21.430Z,100120.03
2022-10-14T16:22:48.234Z,100083.97
2022-10-14T16:25:19.614Z,100126.66
2022-10-14T16:27:48.814Z,100033.31
2022-10-14T16:30:15.500Z,100130.25
2022-10-14T16:32:42.521Z,100106.88
2022-10-14T16:35:09.751Z,100088.03
2022-10-14T16:37:38.139Z,100127.56
2022-10-14T16:40:05.565Z,100089.16
2022-10-14T16:42:32.027Z,100041.94
2022-10-14T16:44:59.621Z,100022.69
2022-10-14T16:47:26.896Z,100129.03
2022-10-14T16:49:55.329Z,100094.66
2022-10-14T16:52:22.203Z,100104.75
2022-10-14T16:54:49.016Z,100116.94
2022-10-14T16:57:15.629Z,100125.41
2022-10-14T16:59:42.290Z,100122.13
2022-10-14T17:02:14.276Z,100088.13
2022-10-14T17:04:42.350Z,100075.59
2022-10-14T17:07:09.643Z,100060.94
2022-10-14T17:09:36.684Z,100137.53
2022-10-14T17:12:06.870Z,100131.19
2022-10-14T17:14:36.316Z,100076.56
2022-10-14T17:17:02.769Z,100071.25
2022-10-14T17:19:29.379Z,100058.78
2022-10-14T17:21:55.947Z,100077.16
2022-10-14T17:24:23.206Z,100068.84
2022-10-14T17:26:49.794Z,100090.69
2022-10-14T17:29:20.458Z,100053.03
2022-10-14T17:31:46.972Z,100126.91
2022-10-14T17:34:13.916Z,100090.84
2022-10-14T17:36:41.630Z,100084.94
2022-10-14T17:39:16.370Z,100050.78
2022-10-14T17:41:48.110Z,100073.84
2022-10-14T17:44:14.684Z,100111.81
2022-10-14T17:46:41.314Z,100089.06
2022-10-14T17:49:10.874Z,100098.00
2022-10-14T17:51:41.157Z,100096.88
2022-10-14T17:54:10.664Z,100123.38
2022-10-14T17:56:40.942Z,100130.78
2022-10-14T17:59:10.539Z,100090.53
2022-10-14T18:02:01.005Z,100108.72
2022-10-14T18:04:24.012Z,100117.34
2022-10-14T18:06:52.820Z,100099.97
2022-10-14T18:09:19.413Z,100076.09
2022-10-14T18:14:34.356Z,100071.31
2022-10-14T18:17:01.252Z,100054.63
2022-10-14T18:19:27.940Z,100065.34
2022-10-14T18:21:54.519Z,100089.81
2022-10-14T18:24:23.846Z,100104.13
2022-10-14T18:26:51.553Z,99969.56
2022-10-14T18:29:18.244Z,100106.63
2022-10-14T18:31:44.844Z,100057.66
2022-10-14T18:34:11.971Z,100066.94
2022-10-14T18:36:38.642Z,100119.41
2022-10-14T18:39:07.141Z,100121.47
2022-10-14T18:41:34.372Z,100111.63
2022-10-14T18:44:00.988Z,100111.63
2022-10-14T18:46:29.864Z,100102.19
2022-10-14T18:48:58.319Z,100107.03
2022-10-14T18:51:27.389Z,100109.28
2022-10-14T18:53:57.124Z,100112.84
2022-10-14T18:56:28.324Z,100056.03
2022-10-14T19:01:30.978Z,100055.94
2022-10-14T19:03:57.669Z,100101.72
2022-10-14T19:06:24.618Z,100079.09
2022-10-14T19:08:52.028Z,100094.13
2022-10-14T19:11:24.457Z,100097.56
2022-10-14T19:13:53.801Z,100072.75
2022-10-14T19:16:25.813Z,100089.25
2022-10-14T19:18:54.865Z,100032.28
2022-10-14T19:21:22.804Z,100093.97
2022-10-14T19:23:52.618Z,100093.13
2022-10-14T19:26:21.866Z,100086.91
2022-10-14T19:28:49.829Z,99955.00
2022-10-14T19:31:19.543Z,100097.16
2022-10-14T19:33:47.305Z,100104.34
2022-10-14T19:36:16.709Z,100049.41
2022-10-14T19:38:54.725Z,100099.47
2022-10-14T19:41:21.577Z,100051.31
2022-10-14T19:43:48.042Z,100057.63
2022-10-14T19:46:14.779Z,100083.72
2022-10-14T19:48:41.445Z,100076.50
2022-10-14T19:51:11.700Z,100076.81
2022-10-14T19:53:38.720Z,100072.94
2022-10-14T19:56:08.438Z,100081.72
2022-10-14T19:58:35.210Z,100077.94
2022-10-14T20:01:15.984Z,100062.00
2022-10-14T20:03:43.157Z,100043.63
2022-10-14T20:06:10.789Z,100008.88
2022-10-14T20:08:37.547Z,100063.69
2022-10-14T20:11:09.574Z,100057.91
2022-10-14T20:13:38.935Z,100054.16
2022-10-14T20:16:07.731Z,100044.22
2022-10-14T20:18:34.689Z,99992.06
2022-10-14T20:21:02.297Z,100052.56
2022-10-14T20:23:28.801Z,100049.38
2022-10-14T20:26:03.075Z,100041.53
2022-10-14T20:28:29.698Z,100022.94
2022-10-14T20:30:57.403Z,100030.69
2022-10-14T20:33:24.295Z,100054.59
2022-10-14T20:35:59.989Z,100069.53
2022-10-14T20:38:26.614Z,100064.88
2022-10-14T20:40:53.237Z,100022.38
2022-10-14T20:43:20.146Z,100029.78
2022-10-14T20:45:46.680Z,100067.03
2022-10-14T20:48:13.123Z,99999.22
2022-10-14T20:50:41.558Z,100034.88
2022-10-14T20:53:10.922Z,100005.16
2022-10-14T20:55:37.840Z,99973.75
2022-10-14T20:58:04.329Z,100007.19
2022-10-14T21:00:30.987Z,100026.56
2022-10-14T21:02:58.529Z,100001.16
2022-10-14T21:05:26.171Z,100023.56
2022-10-14T21:07:52.769Z,100016.44
2022-10-14T21:10:19.847Z,100034.03
2022-10-14T21:12:48.809Z,100055.25
2022-10-14T21:15:15.955Z,100026.63
2022-10-14T21:17:49.954Z,99994.28
2022-10-14T21:20:17.195Z,100030.06
2022-10-14T21:22:43.688Z,100027.72
2022-10-14T21:25:10.396Z,100041.38
2022-10-14T21:27:36.889Z,100036.53
2022-10-14T21:30:04.307Z,100024.03
2022-10-14T21:32:31.226Z,100039.03
2022-10-14T21:34:58.511Z,99985.53
2022-10-14T21:37:25.272Z,100042.47
2022-10-14T21:39:54.429Z,100039.22
2022-10-14T21:42:21.088Z,100041.81
2022-10-14T21:44:47.730Z,100039.06
2022-10-14T21:47:14.182Z,100039.69
2022-10-14T21:49:40.701Z,100007.00
2022-10-14T21:52:08.305Z,99981.25
2022-10-14T21:54:34.798Z,99957.13
2022-10-14T21:57:01.325Z,100035.72
2022-10-14T21:59:28.010Z,100039.41
2022-10-14T22:01:56.940Z,99991.41
2022-10-14T22:04:24.321Z,100001.25
2022-10-14T22:06:50.811Z,100041.09
2022-10-14T22:09:17.632Z,100008.69
2022-10-14T22:11:46.714Z,99954.97
2022-10-14T22:14:17.408Z,100038.66
2022-10-14T22:16:45.300Z,100036.91
2022-10-14T22:19:12.641Z,100047.94
2022-10-14T22:21:41.327Z,100045.00
2022-10-14T22:26:35.199Z,99992.84
2022-10-14T22:29:20.676Z,99969.59
2022-10-14T22:31:47.406Z,100027.00
2022-10-14T22:34:16.310Z,100039.69
2022-10-14T22:36:43.579Z,100035.41
2022-10-14T22:39:13.055Z,100042.28
2022-10-14T22:41:39.529Z,100032.38
2022-10-14T22:44:06.401Z,100012.44
2022-10-14T22:46:35.776Z,100040.25
2022-10-14T22:49:02.621Z,100028.00
2022-10-14T22:51:40.095Z,100034.78
2022-10-14T22:54:06.791Z,99980.09
2022-10-14T22:56:33.430Z,100032.38
2022-10-14T22:59:03.321Z,100012.94
2022-10-14T23:01:30.484Z,100020.53
2022-10-14T23:03:58.258Z,100019.28
2022-10-14T23:06:25.407Z,100019.59
2022-10-14T23:08:52.581Z,100007.09
2022-10-14T23:11:20.765Z,99998.00
2022-10-14T23:13:47.581Z,100003.66
2022-10-14T23:16:19.247Z,100009.50
2022-10-14T23:18:46.718Z,100012.81
2022-10-14T23:21:14.435Z,100011.25
2022-10-14T23:23:41.365Z,99977.19
2022-10-14T23:26:16.320Z,100001.28
2022-10-14T23:28:43.042Z,100018.75
2022-10-14T23:31:15.748Z,99998.03
2022-10-14T23:33:42.470Z,99974.97
2022-10-14T23:36:11.194Z,100008.00
2022-10-14T23:38:39.819Z,100008.19
2022-10-14T23:41:07.880Z,100007.38
2022-10-14T23:43:34.640Z,100009.84
2022-10-14T23:46:01.205Z,99968.09
2022-10-14T23:48:28.147Z,100012.44
2022-10-14T23:50:55.614Z,99997.16
2022-10-14T23:53:22.590Z,100005.97
2022-10-14T23:55:49.152Z,99948.56
2022-10-14T23:58:17.786Z,100026.25
